Time;durP1;ratioP1;P1;durP2;ratioP2;P2;SDS_P1;SDS_P2;PMS_P1;PMS_P2;Temp;Humidity;BMP_temperature;BMP_pressure;BME280_temperature;BME280_humidity;BME280_pressure;Samples;Min_cycle;Max_cycle;Signal;HPM_P1;HPM_P2
2023/10/25 00:02:17;;;;;;;69.80;26.65;;;;;;;;;;6253517;28;20045;-64
2023/10/25 00:05:18;;;;;;;74.25;26.98;;;;;;;;;;6255623;28;20045;-64
2023/10/25 00:08:19;;;;;;;84.18;31.33;;;;;;;;;;6242038;28;20053;-65
2023/10/25 00:11:19;;;;;;;63.15;25.77;;;;;;;;;;6256001;28;20049;-64
2023/10/25 00:14:20;;;;;;;59.72;24.52;;;;;;;;;;6248133;28;20048;-64
2023/10/25 00:17:20;;;;;;;70.68;26.80;;;;;;;;;;6254832;28;20063;-64
2023/10/25 00:20:21;;;;;;;78.28;32.42;;;;;;;;;;6242243;28;20045;-64
2023/10/25 00:23:22;;;;;;;68.25;27.45;;;;;;;;;;6254177;28;20045;-64
2023/10/25 00:26:22;;;;;;;64.35;25.63;;;;;;;;;;6243893;28;20046;-64
2023/10/25 00:29:23;;;;;;;65.63;27.40;;;;;;;;;;6244757;28;20065;-65
2023/10/25 00:32:23;;;;;;;63.08;29.30;;;;;;;;;;6249181;28;20037;-64
2023/10/25 00:35:24;;;;;;;65.95;25.52;;;;;;;;;;6255503;28;20472;-64
2023/10/25 00:38:25;;;;;;;66.32;28.92;;;;;;;;;;6242775;28;20045;-65
2023/10/25 00:41:25;;;;;;;54.47;24.10;;;;;;;;;;6242537;28;20049;-64
2023/10/25 00:44:26;;;;;;;57.55;24.77;;;;;;;;;;6247836;28;20057;-64
2023/10/25 00:47:27;;;;;;;57.50;24.27;;;;;;;;;;6247688;28;20041;-65
2023/10/25 00:50:27;;;;;;;66.75;26.88;;;;;;;;;;6252165;28;20496;-65
2023/10/25 00:53:31;;;;;;;61.47;25.90;;;;;;;;;;6259155;28;20120;-64
2023/10/25 00:56:33;;;;;;;67.18;33.83;;;;;;;;;;6247056;28;20073;-64
2023/10/25 00:59:35;;;;;;;61.67;26.52;;;;;;;;;;6250786;28;20066;-65
2023/10/25 01:02:35;;;;;;;63.30;26.33;;;;;;;;;;6266116;28;20468;-64
2023/10/25 01:05:37;;;;;;;66.03;27.50;;;;;;;;;;6252237;28;20048;-65
2023/10/25 01:08:37;;;;;;;54.72;22.80;;;;;;;;;;6258248;28;20500;-64
2023/10/25 01:11:39;;;;;;;66.25;25.27;;;;;;;;;;6248023;28;20045;-65
2023/10/25 01:14:39;;;;;;;65.90;26.48;;;;;;;;;;6251041;28;20531;-64
2023/10/25 01:17:40;;;;;;;55.53;21.48;;;;;;;;;;6258676;28;20094;-64
2023/10/25 01:20:41;;;;;;;66.82;24.58;;;;;;;;;;6246767;28;20080;-64
2023/10/25 01:23:42;;;;;;;65.07;24.98;;;;;;;;;;6248475;28;20317;-65
2023/10/25 01:26:42;;;;;;;70.30;34.63;;;;;;;;;;6246478;28;20413;-64
2023/10/25 01:29:43;;;;;;;61.25;23.10;;;;;;;;;;6247545;28;20535;-65
2023/10/25 01:32:44;;;;;;;60.15;27.58;;;;;;;;;;6246671;28;20484;-64
2023/10/25 01:35:44;;;;;;;79.63;38.20;;;;;;;;;;6245270;28;20131;-65
2023/10/25 01:38:45;;;;;;;56.83;23.92;;;;;;;;;;6244318;28;20114;-65
2023/10/25 01:41:46;;;;;;;65.07;22.40;;;;;;;;;;6247262;28;20573;-65
2023/10/25 01:44:46;;;;;;;69.38;23.98;;;;;;;;;;6245346;28;20096;-64
2023/10/25 01:47:47;;;;;;;69.28;26.50;;;;;;;;;;6245453;28;20076;-64
2023/10/25 01:50:51;;;;;;;66.95;26.33;;;;;;;;;;6246312;28;20137;-64
2023/10/25 01:53:52;;;;;;;94.85;36.17;;;;;;;;;;6259216;28;20046;-65
2023/10/25 01:56:52;;;;;;;87.80;34.65;;;;;;;;;;6246926;28;20068;-65
2023/10/25 01:59:53;;;;;;;59.83;23.73;;;;;;;;;;6255630;28;20484;-64
2023/10/25 02:02:53;;;;;;;62.92;21.98;;;;;;;;;;6245655;28;20046;-64
2023/10/25 02:05:54;;;;;;;57.97;24.17;;;;;;;;;;6244778;28;20045;-65
2023/10/25 02:08:55;;;;;;;55.85;24.00;;;;;;;;;;6246034;28;20046;-65
2023/10/25 02:11:55;;;;;;;45.40;18.42;;;;;;;;;;6254452;28;20057;-64
2023/10/25 02:14:56;;;;;;;45.60;18.80;;;;;;;;;;6245021;28;20071;-65
2023/10/25 02:17:56;;;;;;;53.83;22.45;;;;;;;;;;6246324;28;20499;-65
2023/10/25 02:20:57;;;;;;;39.78;16.63;;;;;;;;;;6246013;28;20045;-64
2023/10/25 02:23:58;;;;;;;35.38;16.25;;;;;;;;;;6244818;28;20492;-65
2023/10/25 02:26:58;;;;;;;39.00;15.27;;;;;;;;;;6245143;28;20463;-66
2023/10/25 02:29:59;;;;;;;35.55;15.18;;;;;;;;;;6244685;28;20076;-65
2023/10/25 02:32:59;;;;;;;38.30;14.88;;;;;;;;;;6245676;28;20554;-64
2023/10/25 02:36:00;;;;;;;31.88;15.15;;;;;;;;;;6242765;28;20511;-64
2023/10/25 02:39:01;;;;;;;36.83;15.40;;;;;;;;;;6244554;28;20082;-65
2023/10/25 02:42:02;;;;;;;39.42;15.38;;;;;;;;;;6245615;28;20132;-64
2023/10/25 02:45:02;;;;;;;39.03;15.02;;;;;;;;;;6244669;28;20098;-64
2023/10/25 02:48:04;;;;;;;34.70;15.85;;;;;;;;;;6243595;28;20060;-65
2023/10/25 02:51:05;;;;;;;39.85;16.27;;;;;;;;;;6241985;28;20057;-64
2023/10/25 02:54:06;;;;;;;39.45;15.50;;;;;;;;;;6244050;28;20047;-64
2023/10/25 02:57:06;;;;;;;34.60;16.17;;;;;;;;;;6245523;28;20049;-64
2023/10/25 03:00:10;;;;;;;42.10;17.75;;;;;;;;;;6251789;28;20106;-65
2023/10/25 03:03:10;;;;;;;45.13;18.58;;;;;;;;;;6248804;28;20084;-64
2023/10/25 03:06:11;;;;;;;51.63;20.67;;;;;;;;;;6244267;28;20075;-64
2023/10/25 03:09:12;;;;;;;48.38;19.42;;;;;;;;;;6244420;28;20041;-64
2023/10/25 03:12:13;;;;;;;54.20;22.50;;;;;;;;;;6242641;28;20049;-64
2023/10/25 03:15:13;;;;;;;53.70;21.25;;;;;;;;;;6243293;28;20402;-64
2023/10/25 03:18:14;;;;;;;61.45;23.30;;;;;;;;;;6244647;28;20049;-64
2023/10/25 03:21:14;;;;;;;54.28;22.88;;;;;;;;;;6242684;28;20504;-64
2023/10/25 03:24:15;;;;;;;57.50;24.00;;;;;;;;;;6241107;28;20053;-64
2023/10/25 03:27:16;;;;;;;63.38;22.98;;;;;;;;;;6242327;28;20119;-64
2023/10/25 03:30:17;;;;;;;61.67;23.83;;;;;;;;;;6244205;28;20057;-64
2023/10/25 03:33:17;;;;;;;48.20;19.92;;;;;;;;;;6243077;28;20053;-64
2023/10/25 03:36:18;;;;;;;50.67;20.90;;;;;;;;;;6243787;28;20457;-64
2023/10/25 03:39:19;;;;;;;45.60;18.45;;;;;;;;;;6244588;28;20554;-64
2023/10/25 03:42:19;;;;;;;50.20;20.17;;;;;;;;;;6242875;28;20045;-65
2023/10/25 03:45:20;;;;;;;50.50;19.98;;;;;;;;;;6243414;28;20400;-64
2023/10/25 03:48:21;;;;;;;52.80;21.05;;;;;;;;;;6244127;28;20510;-64
2023/10/25 03:51:21;;;;;;;58.63;23.45;;;;;;;;;;6243882;28;20100;-64
2023/10/25 03:54:22;;;;;;;59.75;25.13;;;;;;;;;;6242837;28;20099;-64
2023/10/25 03:57:23;;;;;;;63.90;24.85;;;;;;;;;;6244384;28;20053;-65
2023/10/25 04:00:23;;;;;;;63.73;24.10;;;;;;;;;;6256810;28;20049;-64
2023/10/25 04:03:24;;;;;;;57.42;22.25;;;;;;;;;;6260523;28;20050;-64
2023/10/25 04:06:25;;;;;;;64.18;24.42;;;;;;;;;;6239980;28;20045;-64
2023/10/25 04:09:25;;;;;;;65.32;25.95;;;;;;;;;;6242364;28;20044;-64
2023/10/25 04:12:27;;;;;;;61.88;23.52;;;;;;;;;;6252875;28;20049;-64
2023/10/25 04:15:30;;;;;;;63.22;24.80;;;;;;;;;;6257191;28;20059;-64
2023/10/25 04:18:32;;;;;;;63.63;23.65;;;;;;;;;;6255536;28;20044;-65
2023/10/25 04:21:33;;;;;;;64.25;25.15;;;;;;;;;;6252954;28;20053;-64
2023/10/25 04:24:34;;;;;;;71.57;25.83;;;;;;;;;;6254037;28;20049;-64
2023/10/25 04:27:34;;;;;;;62.22;23.95;;;;;;;;;;6253679;28;20045;-64
2023/10/25 04:30:35;;;;;;;59.42;23.48;;;;;;;;;;6245750;28;20064;-65
2023/10/25 04:33:39;;;;;;;62.83;24.75;;;;;;;;;;6249726;28;20055;-64
2023/10/25 04:36:40;;;;;;;63.13;24.40;;;;;;;;;;6248466;28;20056;-64
2023/10/25 04:39:40;;;;;;;62.95;25.85;;;;;;;;;;6244603;28;20045;-64
2023/10/25 04:42:41;;;;;;;62.90;24.65;;;;;;;;;;6260035;28;20783;-64
2023/10/25 04:45:41;;;;;;;69.15;24.13;;;;;;;;;;6247022;28;20127;-64
2023/10/25 04:48:42;;;;;;;74.45;25.95;;;;;;;;;;6259038;28;20052;-65
2023/10/25 04:51:43;;;;;;;70.60;27.25;;;;;;;;;;6248501;28;20057;-64
2023/10/25 04:54:44;;;;;;;71.53;27.08;;;;;;;;;;6239592;28;20140;-64
2023/10/25 04:57:44;;;;;;;71.18;27.45;;;;;;;;;;6240250;28;20486;-64
2023/10/25 05:00:45;;;;;;;76.55;29.88;;;;;;;;;;6239070;28;20471;-65
2023/10/25 05:03:45;;;;;;;76.10;29.20;;;;;;;;;;6240315;28;20036;-64
2023/10/25 05:06:47;;;;;;;75.95;27.90;;;;;;;;;;6239197;28;20056;-64
2023/10/25 05:09:47;;;;;;;74.38;27.70;;;;;;;;;;6239791;28;20077;-64
2023/10/25 05:12:48;;;;;;;75.85;27.38;;;;;;;;;;6238562;28;20051;-65
2023/10/25 05:15:49;;;;;;;70.22;26.73;;;;;;;;;;6237685;28;20037;-64
2023/10/25 05:18:50;;;;;;;68.70;25.80;;;;;;;;;;6240438;28;20060;-64
2023/10/25 05:21:51;;;;;;;75.38;27.80;;;;;;;;;;6240938;28;20917;-64
2023/10/25 05:24:52;;;;;;;70.72;26.20;;;;;;;;;;6240434;28;20052;-64
2023/10/25 05:27:53;;;;;;;75.97;27.45;;;;;;;;;;6242105;28;20471;-65
2023/10/25 05:30:55;;;;;;;75.82;27.63;;;;;;;;;;6241792;28;20061;-64
2023/10/25 05:33:55;;;;;;;73.07;26.88;;;;;;;;;;6239771;28;20484;-65
2023/10/25 05:36:56;;;;;;;67.70;26.75;;;;;;;;;;6244032;28;20045;-65
2023/10/25 05:39:57;;;;;;;64.30;25.73;;;;;;;;;;6246318;28;20037;-64
2023/10/25 05:43:01;;;;;;;63.63;23.73;;;;;;;;;;6244531;28;20132;-64
2023/10/25 05:46:02;;;;;;;66.13;24.05;;;;;;;;;;6246970;28;20043;-64
2023/10/25 05:49:03;;;;;;;60.78;24.17;;;;;;;;;;6244344;28;20500;-64
2023/10/25 05:52:05;;;;;;;54.40;21.60;;;;;;;;;;6245935;28;20131;-64
2023/10/25 05:55:06;;;;;;;;;;;;;;;;;;6246108;28;20485;-64
2023/10/25 05:58:06;;;;;;;55.67;20.80;;;;;;;;;;6245612;28;19928;-64
2023/10/25 06:01:09;;;;;;;49.35;20.15;;;;;;;;;;6245723;28;20484;-65
2023/10/25 06:04:12;;;;;;;49.20;20.77;;;;;;;;;;6244675;28;20095;-64
2023/10/25 06:07:13;;;;;;;50.63;18.58;;;;;;;;;;6245741;28;20045;-65
2023/10/25 06:10:14;;;;;;;50.33;21.13;;;;;;;;;;6246229;28;20493;-65
2023/10/25 06:13:15;;;;;;;49.08;19.95;;;;;;;;;;6245825;28;20310;-64
2023/10/25 06:16:16;;;;;;;46.40;19.55;;;;;;;;;;6246049;28;20048;-64
2023/10/25 06:19:17;;;;;;;53.67;21.60;;;;;;;;;;6245665;28;20049;-64
2023/10/25 06:22:17;;;;;;;50.22;20.23;;;;;;;;;;6244145;28;20048;-64
2023/10/25 06:25:18;;;;;;;51.45;20.85;;;;;;;;;;6243676;28;20400;-64
2023/10/25 06:28:18;;;;;;;55.63;22.55;;;;;;;;;;6244176;28;20112;-64
2023/10/25 06:31:19;;;;;;;58.35;23.27;;;;;;;;;;6245367;28;20053;-64
2023/10/25 06:34:20;;;;;;;62.60;24.90;;;;;;;;;;6245517;28;20382;-64
2023/10/25 06:37:21;;;;;;;72.93;26.40;;;;;;;;;;6245084;28;20044;-64
2023/10/25 06:40:22;;;;;;;68.10;25.23;;;;;;;;;;6243691;28;20045;-64
2023/10/25 06:43:23;;;;;;;63.92;25.70;;;;;;;;;;6241608;28;20513;-64
2023/10/25 06:46:24;;;;;;;65.03;25.08;;;;;;;;;;6242754;28;20048;-64
2023/10/25 06:49:25;;;;;;;63.60;23.63;;;;;;;;;;6243820;28;20646;-64
2023/10/25 06:52:26;;;;;;;65.05;26.60;;;;;;;;;;6244372;28;20045;-64
2023/10/25 06:55:27;;;;;;;72.05;25.13;;;;;;;;;;6243562;28;20515;-64
2023/10/25 06:58:28;;;;;;;70.20;25.67;;;;;;;;;;6244337;28;20050;-64
2023/10/25 07:01:31;;;;;;;69.82;25.80;;;;;;;;;;6243199;28;20046;-64
2023/10/25 07:04:33;;;;;;;66.03;24.40;;;;;;;;;;6242963;28;20045;-65
2023/10/25 07:07:34;;;;;;;;;;;;;;;;;;6243069;28;20040;-65
2023/10/25 07:10:35;;;;;;;62.65;23.27;;;;;;;;;;6243488;28;19921;-65
2023/10/25 07:13:36;;;;;;;63.63;25.02;;;;;;;;;;6244492;28;20049;-64
2023/10/25 07:16:37;;;;;;;68.47;25.92;;;;;;;;;;6244288;28;20049;-64
2023/10/25 07:19:41;;;;;;;67.07;25.37;;;;;;;;;;6244153;28;20045;-65
2023/10/25 07:22:42;;;;;;;65.95;25.70;;;;;;;;;;6243635;28;20562;-65
2023/10/25 07:25:43;;;;;;;65.53;24.38;;;;;;;;;;6242232;28;20052;-64
2023/10/25 07:28:44;;;;;;;62.20;24.13;;;;;;;;;;6243832;28;20045;-65
2023/10/25 07:31:44;;;;;;;71.45;25.27;;;;;;;;;;6241924;28;20088;-66
2023/10/25 07:34:46;;;;;;;65.50;25.48;;;;;;;;;;6242970;28;20053;-65
2023/10/25 07:37:47;;;;;;;63.75;24.63;;;;;;;;;;6243798;28;20046;-65
2023/10/25 07:40:49;;;;;;;66.78;25.30;;;;;;;;;;6243925;28;20048;-65
2023/10/25 07:43:50;;;;;;;62.95;24.30;;;;;;;;;;6243090;28;20049;-63
2023/10/25 07:46:51;;;;;;;64.57;25.38;;;;;;;;;;6243014;28;20095;-64
2023/10/25 07:49:51;;;;;;;63.20;24.80;;;;;;;;;;6242150;28;20065;-64
2023/10/25 07:52:52;;;;;;;59.72;22.92;;;;;;;;;;6241968;28;20058;-65
2023/10/25 07:55:53;;;;;;;50.92;21.42;;;;;;;;;;6240400;28;20042;-64
2023/10/25 07:58:53;;;;;;;53.75;23.40;;;;;;;;;;6242678;28;20076;-65
2023/10/25 08:01:56;;;;;;;50.30;20.42;;;;;;;;;;6244374;28;20041;-65
2023/10/25 08:04:57;;;;;;;57.10;22.55;;;;;;;;;;6239314;28;20682;-65
2023/10/25 08:07:58;;;;;;;54.88;21.38;;;;;;;;;;6241282;28;20052;-65
2023/10/25 08:11:00;;;;;;;46.38;19.42;;;;;;;;;;6242789;28;20586;-65
2023/10/25 08:14:02;;;;;;;55.60;20.77;;;;;;;;;;6240973;28;20418;-65
2023/10/25 08:17:03;;;;;;;50.33;20.00;;;;;;;;;;6241636;28;20049;-65
2023/10/25 08:20:05;;;;;;;46.47;18.67;;;;;;;;;;6243218;28;20037;-63
2023/10/25 08:23:05;;;;;;;51.30;19.00;;;;;;;;;;6243126;28;20488;-64
2023/10/25 08:26:06;;;;;;;47.58;20.05;;;;;;;;;;6239756;28;20428;-65
2023/10/25 08:29:07;;;;;;;50.85;21.15;;;;;;;;;;6240052;28;20045;-65
2023/10/25 08:32:07;;;;;;;47.05;19.95;;;;;;;;;;6242899;28;20053;-65
2023/10/25 08:35:08;;;;;;;46.15;19.90;;;;;;;;;;6241619;28;20677;-65
2023/10/25 08:38:10;;;;;;;45.30;20.05;;;;;;;;;;6241399;28;20432;-65
2023/10/25 08:41:11;;;;;;;48.03;19.70;;;;;;;;;;6243047;28;20555;-65
2023/10/25 08:44:11;;;;;;;51.47;20.70;;;;;;;;;;6242784;28;20050;-65
2023/10/25 08:47:13;;;;;;;48.20;19.02;;;;;;;;;;6242372;28;20041;-64
2023/10/25 08:50:19;;;;;;;40.00;18.65;;;;;;;;;;6243701;28;20125;-65
2023/10/25 08:53:24;;;;;;;42.45;17.70;;;;;;;;;;6242522;28;20057;-64
2023/10/25 08:56:25;;;;;;;44.08;18.27;;;;;;;;;;6239569;28;20059;-65
2023/10/25 08:59:26;;;;;;;43.53;17.90;;;;;;;;;;6241620;28;20038;-65
2023/10/25 09:02:26;;;;;;;41.03;17.48;;;;;;;;;;6242929;28;20056;-65
2023/10/25 09:05:39;;;;;;;42.45;17.75;;;;;;;;;;6240717;28;20041;-65
2023/10/25 09:08:41;;;;;;;;;;;;;;;;;;6241975;28;20527;-65
2023/10/25 09:11:43;;;;;;;;;;;;;;;;;;6246783;28;19921;-64
2023/10/25 09:14:47;;;;;;;40.30;16.20;;;;;;;;;;6247027;28;19921;-64
2023/10/25 09:17:47;;;;;;;35.28;14.82;;;;;;;;;;6244383;28;20160;-63
2023/10/25 09:20:49;;;;;;;35.25;16.20;;;;;;;;;;6246572;28;20570;-64
2023/10/25 09:23:54;;;;;;;34.93;15.27;;;;;;;;;;6246814;28;20100;-64
2023/10/25 09:27:01;;;;;;;35.15;15.63;;;;;;;;;;6243800;28;20646;-64
2023/10/25 09:30:15;;;;;;;36.20;15.60;;;;;;;;;;6245857;28;20057;-65
2023/10/25 09:33:16;;;;;;;31.88;14.75;;;;;;;;;;6246882;28;20059;-64
2023/10/25 09:36:20;;;;;;;26.88;13.20;;;;;;;;;;6244338;28;20045;-64
2023/10/25 09:39:21;;;;;;;30.20;12.70;;;;;;;;;;6243698;28;20107;-64
2023/10/25 09:42:25;;;;;;;27.50;11.82;;;;;;;;;;6246184;28;20137;-64
2023/10/25 09:45:29;;;;;;;24.08;11.57;;;;;;;;;;6244951;28;20038;-64
2023/10/25 09:48:35;;;;;;;23.35;11.40;;;;;;;;;;6245162;28;21046;-64
2023/10/25 09:51:44;;;;;;;22.77;11.45;;;;;;;;;;6245231;28;20041;-65
2023/10/25 09:54:52;;;;;;;25.02;11.07;;;;;;;;;;6246665;28;20250;-64
2023/10/25 09:57:55;;;;;;;19.00;10.52;;;;;;;;;;6244022;28;20053;-64
2023/10/25 10:00:55;;;;;;;22.40;11.25;;;;;;;;;;6243381;28;20877;-65
2023/10/25 10:04:11;;;;;;;23.52;10.68;;;;;;;;;;6244834;28;20046;-65
2023/10/25 10:07:54;;;;;;;21.15;9.80;;;;;;;;;;6244328;28;20464;-64
2023/10/25 10:10:58;;;;;;;21.42;10.02;;;;;;;;;;6245708;28;20053;-64
2023/10/25 10:14:28;;;;;;;24.27;10.57;;;;;;;;;;6245159;28;20053;-64
2023/10/25 10:17:34;;;;;;;24.02;10.82;;;;;;;;;;6245890;28;20041;-64
2023/10/25 10:20:34;;;;;;;23.42;11.35;;;;;;;;;;6247006;28;20517;-65
2023/10/25 10:23:51;;;;;;;23.80;11.13;;;;;;;;;;6255266;28;20056;-66
2023/10/25 10:26:53;;;;;;;21.45;10.27;;;;;;;;;;6254854;28;20059;-66
2023/10/25 10:29:54;;;;;;;18.73;10.50;;;;;;;;;;6255449;28;20056;-65
2023/10/25 10:32:57;;;;;;;18.50;10.88;;;;;;;;;;6254389;28;20057;-66
2023/10/25 10:36:01;;;;;;;19.25;10.23;;;;;;;;;;6255521;28;20128;-65
2023/10/25 10:39:16;;;;;;;22.83;10.98;;;;;;;;;;6256611;28;20095;-65
2023/10/25 10:42:20;;;;;;;20.23;10.73;;;;;;;;;;6251582;28;20172;-65
2023/10/25 10:45:21;;;;;;;18.17;9.85;;;;;;;;;;6255797;28;20048;-65
2023/10/25 10:48:32;;;;;;;16.60;9.02;;;;;;;;;;6255115;28;20128;-65
2023/10/25 10:51:32;;;;;;;16.75;9.27;;;;;;;;;;6254472;28;20055;-65
2023/10/25 10:54:33;;;;;;;20.65;10.80;;;;;;;;;;6256310;28;20167;-65
2023/10/25 10:57:37;;;;;;;19.02;10.02;;;;;;;;;;6252721;28;20052;-65
2023/10/25 11:00:44;;;;;;;20.73;10.95;;;;;;;;;;6250633;28;20053;-65
2023/10/25 11:03:45;;;;;;;25.95;12.00;;;;;;;;;;6255004;28;20087;-65
2023/10/25 11:06:46;;;;;;;20.83;11.27;;;;;;;;;;6253683;28;20211;-65
2023/10/25 11:09:46;;;;;;;17.77;10.43;;;;;;;;;;6252736;28;20082;-66
2023/10/25 11:12:47;;;;;;;22.25;10.32;;;;;;;;;;6252075;28;20053;-65
2023/10/25 11:15:47;;;;;;;20.63;10.02;;;;;;;;;;6253463;28;20048;-64
2023/10/25 11:18:48;;;;;;;22.25;11.00;;;;;;;;;;6250638;28;20450;-65
2023/10/25 11:21:48;;;;;;;20.10;10.25;;;;;;;;;;6251847;28;20048;-65
2023/10/25 11:24:53;;;;;;;25.40;10.85;;;;;;;;;;6252945;28;20540;-65
2023/10/25 11:27:55;;;;;;;23.02;10.98;;;;;;;;;;6253708;28;20049;-66
2023/10/25 11:31:03;;;;;;;23.02;10.40;;;;;;;;;;6252689;28;20050;-65
2023/10/25 11:34:03;;;;;;;26.05;12.32;;;;;;;;;;6253525;28;20048;-66
2023/10/25 11:37:04;;;;;;;30.70;12.80;;;;;;;;;;6253695;28;20388;-67
2023/10/25 11:40:05;;;;;;;27.63;13.07;;;;;;;;;;6252353;28;20507;-67
2023/10/25 11:43:07;;;;;;;24.17;12.80;;;;;;;;;;6255555;28;20059;-65
2023/10/25 11:46:07;;;;;;;22.27;11.02;;;;;;;;;;6252462;28;20049;-65
2023/10/25 11:49:08;;;;;;;24.77;10.45;;;;;;;;;;6254801;28;20048;-65
2023/10/25 11:52:11;;;;;;;22.02;8.48;;;;;;;;;;6252340;28;20045;-65
2023/10/25 11:55:12;;;;;;;17.33;8.30;;;;;;;;;;6253509;28;20084;-66
2023/10/25 11:58:15;;;;;;;19.80;8.25;;;;;;;;;;6253550;28;20049;-66
2023/10/25 12:01:16;;;;;;;18.90;7.90;;;;;;;;;;6251228;28;20063;-66
2023/10/25 12:04:16;;;;;;;17.70;8.65;;;;;;;;;;6252746;28;20404;-66
2023/10/25 12:07:19;;;;;;;20.33;7.55;;;;;;;;;;6254600;28;20049;-66
2023/10/25 12:10:21;;;;;;;15.43;7.32;;;;;;;;;;6252175;28;20407;-64
2023/10/25 12:13:22;;;;;;;18.13;7.60;;;;;;;;;;6255243;28;20041;-65
2023/10/25 12:16:23;;;;;;;17.95;7.60;;;;;;;;;;6255600;28;20119;-65
2023/10/25 12:19:24;;;;;;;16.35;7.47;;;;;;;;;;6250879;28;20488;-66
2023/10/25 12:22:25;;;;;;;18.77;8.00;;;;;;;;;;6251290;28;20067;-65
2023/10/25 12:25:26;;;;;;;15.23;7.28;;;;;;;;;;6250187;28;20139;-66
2023/10/25 12:28:27;;;;;;;19.67;7.18;;;;;;;;;;6254891;28;20080;-66
2023/10/25 12:31:28;;;;;;;16.42;6.97;;;;;;;;;;6250105;28;20053;-65
2023/10/25 12:34:28;;;;;;;18.80;7.03;;;;;;;;;;6251339;28;21017;-66
2023/10/25 12:37:30;;;;;;;14.90;6.63;;;;;;;;;;6256730;28;20045;-65
2023/10/25 12:40:30;;;;;;;15.15;6.53;;;;;;;;;;6251616;28;20041;-65
2023/10/25 12:43:31;;;;;;;14.30;6.15;;;;;;;;;;6250392;28;20488;-66
2023/10/25 12:46:32;;;;;;;12.75;5.90;;;;;;;;;;6250459;28;20048;-65
2023/10/25 12:49:32;;;;;;;13.80;5.32;;;;;;;;;;6250151;28;20041;-66
2023/10/25 12:52:33;;;;;;;10.90;5.32;;;;;;;;;;6249912;28;20057;-65
2023/10/25 12:55:34;;;;;;;13.02;6.00;;;;;;;;;;6249789;28;20102;-66
2023/10/25 12:58:34;;;;;;;11.38;5.25;;;;;;;;;;6249206;28;20060;-64
2023/10/25 13:01:35;;;;;;;11.35;5.38;;;;;;;;;;6251750;28;20057;-65
2023/10/25 13:04:35;;;;;;;10.07;4.93;;;;;;;;;;6252092;28;20283;-66
2023/10/25 13:07:36;;;;;;;12.68;5.60;;;;;;;;;;6252371;28;20416;-66
2023/10/25 13:10:37;;;;;;;12.70;5.60;;;;;;;;;;6246924;28;20556;-65
2023/10/25 13:13:37;;;;;;;12.70;5.95;;;;;;;;;;6250585;28;20049;-65
2023/10/25 13:16:38;;;;;;;11.65;5.60;;;;;;;;;;6250816;28;20056;-65
2023/10/25 13:19:40;;;;;;;14.60;6.27;;;;;;;;;;6253037;28;20044;-65
2023/10/25 13:22:41;;;;;;;11.07;5.55;;;;;;;;;;6252686;28;20302;-66
2023/10/25 13:25:43;;;;;;;10.05;4.93;;;;;;;;;;6254919;28;20106;-66
2023/10/25 13:28:43;;;;;;;9.93;4.80;;;;;;;;;;6253985;28;20134;-66
2023/10/25 13:31:44;;;;;;;10.90;5.07;;;;;;;;;;6251375;28;20056;-64
2023/10/25 13:34:45;;;;;;;11.13;5.20;;;;;;;;;;6249756;28;20053;-65
2023/10/25 13:37:46;;;;;;;10.85;4.82;;;;;;;;;;6253325;28;20044;-65
2023/10/25 13:40:48;;;;;;;8.85;4.65;;;;;;;;;;6250512;28;20557;-65
2023/10/25 13:43:49;;;;;;;11.25;5.63;;;;;;;;;;6252930;28;20056;-65
2023/10/25 13:46:49;;;;;;;12.90;5.95;;;;;;;;;;6253440;28;20048;-66
2023/10/25 13:49:50;;;;;;;10.63;5.32;;;;;;;;;;6249170;28;20484;-65
2023/10/25 13:52:51;;;;;;;11.93;5.40;;;;;;;;;;6251040;28;20093;-64
2023/10/25 13:55:51;;;;;;;13.80;5.10;;;;;;;;;;6253251;28;20045;-65
2023/10/25 13:58:52;;;;;;;11.27;4.95;;;;;;;;;;6254365;28;20049;-66
2023/10/25 14:01:53;;;;;;;12.13;5.25;;;;;;;;;;6252592;28;20122;-66
2023/10/25 14:04:53;;;;;;;12.85;5.50;;;;;;;;;;6255402;28;20045;-66
2023/10/25 14:07:54;;;;;;;10.35;5.03;;;;;;;;;;6258670;28;20049;-66
2023/10/25 14:10:54;;;;;;;14.07;5.18;;;;;;;;;;6253062;28;20056;-66
2023/10/25 14:13:57;;;;;;;11.38;5.28;;;;;;;;;;6255465;28;20149;-66
2023/10/25 14:16:58;;;;;;;12.13;5.55;;;;;;;;;;6254794;28;21002;-66
2023/10/25 14:19:58;;;;;;;12.77;5.20;;;;;;;;;;6253545;28;20414;-66
2023/10/25 14:22:59;;;;;;;12.18;5.60;;;;;;;;;;6256817;28;20068;-66
2023/10/25 14:26:05;;;;;;;9.65;5.45;;;;;;;;;;6253812;28;20586;-66
2023/10/25 14:29:07;;;;;;;11.38;5.60;;;;;;;;;;6254151;28;20049;-65
2023/10/25 14:32:07;;;;;;;15.10;7.28;;;;;;;;;;6254300;28;20049;-66
2023/10/25 14:35:08;;;;;;;14.73;6.30;;;;;;;;;;6256886;28;20055;-66
2023/10/25 14:38:09;;;;;;;15.10;6.38;;;;;;;;;;6254428;28;20088;-65
2023/10/25 14:41:10;;;;;;;13.52;6.70;;;;;;;;;;6253168;28;20045;-68
2023/10/25 14:44:11;;;;;;;16.63;6.72;;;;;;;;;;6254978;28;20060;-67
2023/10/25 14:47:11;;;;;;;19.00;7.43;;;;;;;;;;6253112;28;20560;-66
2023/10/25 14:50:12;;;;;;;12.98;6.68;;;;;;;;;;6253192;28;20044;-65
2023/10/25 14:53:13;;;;;;;13.77;6.13;;;;;;;;;;6252697;28;20049;-66
2023/10/25 14:56:13;;;;;;;11.98;5.60;;;;;;;;;;6253945;28;20206;-66
2023/10/25 14:59:14;;;;;;;13.82;6.18;;;;;;;;;;6255833;28;20049;-66
2023/10/25 15:02:14;;;;;;;13.00;7.13;;;;;;;;;;6250914;28;20145;-66
2023/10/25 15:05:17;;;;;;;19.10;7.10;;;;;;;;;;6256572;28;20255;-66
2023/10/25 15:08:17;;;;;;;19.77;8.15;;;;;;;;;;6252515;28;20149;-65
2023/10/25 15:11:18;;;;;;;20.65;9.35;;;;;;;;;;6251543;28;20053;-66
2023/10/25 15:14:18;;;;;;;16.70;7.22;;;;;;;;;;6256170;28;20122;-64
2023/10/25 15:17:20;;;;;;;18.55;7.35;;;;;;;;;;6254433;28;20496;-64
2023/10/25 15:20:21;;;;;;;21.00;9.13;;;;;;;;;;6250460;28;20045;-66
2023/10/25 15:23:22;;;;;;;13.07;6.13;;;;;;;;;;6252679;28;20051;-64
2023/10/25 15:26:22;;;;;;;17.75;8.18;;;;;;;;;;6253902;28;20047;-64
2023/10/25 15:29:23;;;;;;;19.50;7.38;;;;;;;;;;6234740;28;20036;-65
2023/10/25 15:32:24;;;;;;;22.10;7.65;;;;;;;;;;6252424;28;20044;-64
2023/10/25 15:35:25;;;;;;;12.02;6.28;;;;;;;;;;6255618;28;20045;-65
2023/10/25 15:38:25;;;;;;;23.13;7.85;;;;;;;;;;6250376;28;20491;-64
2023/10/25 15:41:26;;;;;;;16.13;7.72;;;;;;;;;;6249948;28;20049;-64
2023/10/25 15:44:27;;;;;;;24.95;11.70;;;;;;;;;;6253877;28;20057;-63
2023/10/25 15:47:28;;;;;;;24.40;9.75;;;;;;;;;;6253017;28;20045;-63
2023/10/25 15:50:31;;;;;;;18.10;7.95;;;;;;;;;;6253215;28;20069;-64
2023/10/25 15:53:32;;;;;;;13.20;6.47;;;;;;;;;;6255128;28;20548;-64
2023/10/25 15:56:32;;;;;;;16.20;6.90;;;;;;;;;;6256441;28;20466;-64
2023/10/25 15:59:33;;;;;;;14.27;6.78;;;;;;;;;;6253073;28;20068;-65
2023/10/25 16:02:34;;;;;;;23.27;8.68;;;;;;;;;;6253326;28;20060;-64
2023/10/25 16:05:39;;;;;;;25.85;11.50;;;;;;;;;;6256095;28;20045;-65
2023/10/25 16:08:41;;;;;;;26.45;12.45;;;;;;;;;;6255196;28;20646;-65
2023/10/25 16:11:42;;;;;;;20.75;10.02;;;;;;;;;;6250288;28;20418;-63
2023/10/25 16:14:42;;;;;;;19.77;9.70;;;;;;;;;;6253853;28;20145;-62
2023/10/25 16:17:46;;;;;;;12.90;6.70;;;;;;;;;;6254735;28;20130;-63
2023/10/25 16:20:46;;;;;;;20.80;8.10;;;;;;;;;;6253403;28;20055;-64
2023/10/25 16:23:47;;;;;;;23.13;9.05;;;;;;;;;;6254660;28;20052;-63
2023/10/25 16:26:49;;;;;;;25.40;12.95;;;;;;;;;;6255679;28;20053;-63
2023/10/25 16:29:49;;;;;;;26.63;13.07;;;;;;;;;;6253429;28;20811;-61
2023/10/25 16:32:50;;;;;;;33.55;13.48;;;;;;;;;;6254641;28;20403;-61
2023/10/25 16:35:51;;;;;;;31.92;15.45;;;;;;;;;;6256271;28;20041;-63
2023/10/25 16:38:52;;;;;;;32.60;15.05;;;;;;;;;;6256278;28;20143;-61
2023/10/25 16:41:52;;;;;;;46.97;19.70;;;;;;;;;;6242124;28;20052;-62
2023/10/25 16:44:53;;;;;;;56.47;24.27;;;;;;;;;;6250960;28;20049;-65
2023/10/25 16:47:54;;;;;;;33.78;14.35;;;;;;;;;;6252342;28;20091;-64
2023/10/25 16:50:54;;;;;;;38.05;15.82;;;;;;;;;;6250655;28;20044;-66
2023/10/25 16:53:55;;;;;;;44.25;18.35;;;;;;;;;;6235851;28;20049;-64
2023/10/25 16:56:56;;;;;;;47.05;19.52;;;;;;;;;;6238514;28;20412;-65
2023/10/25 16:59:56;;;;;;;32.83;15.85;;;;;;;;;;6250852;28;20492;-65
2023/10/25 17:02:57;;;;;;;60.72;26.65;;;;;;;;;;6254216;28;20473;-64
2023/10/25 17:05:58;;;;;;;65.75;27.15;;;;;;;;;;6253380;28;20056;-63
2023/10/25 17:08:59;;;;;;;53.90;25.33;;;;;;;;;;6252273;28;20053;-64
2023/10/25 17:12:01;;;;;;;42.83;18.85;;;;;;;;;;6248498;28;20048;-63
2023/10/25 17:15:01;;;;;;;52.67;22.08;;;;;;;;;;6248251;28;20064;-63
2023/10/25 17:18:03;;;;;;;44.10;19.45;;;;;;;;;;6250909;28;20041;-62
2023/10/25 17:21:09;;;;;;;55.38;23.45;;;;;;;;;;6249972;28;20633;-62
2023/10/25 17:24:12;;;;;;;63.42;27.40;;;;;;;;;;6252957;28;20045;-62
2023/10/25 17:27:12;;;;;;;125.28;36.10;;;;;;;;;;6253190;28;20045;-62
2023/10/25 17:30:13;;;;;;;143.68;52.45;;;;;;;;;;6249478;28;20052;-62
2023/10/25 17:33:14;;;;;;;103.13;42.00;;;;;;;;;;6257450;28;20052;-61
2023/10/25 17:36:15;;;;;;;95.57;37.22;;;;;;;;;;6258111;28;20418;-63
2023/10/25 17:39:15;;;;;;;90.15;30.88;;;;;;;;;;6258407;28;20064;-62
2023/10/25 17:42:16;;;;;;;75.40;27.27;;;;;;;;;;6254013;28;20107;-62